Time;durP1;ratioP1;P1;durP2;ratioP2;P2;SDS_P1;SDS_P2;PMS_P1;PMS_P2;Temp;Humidity;BMP_temperature;BMP_pressure;BME280_temperature;BME280_humidity;BME280_pressure;Samples;Min_cycle;Max_cycle;Signal;HPM_P1;HPM_P2
2022/09/09 00:03:45;;;;;;;;;;;;;;;22.42;49.86;95469.28;10251310;28;2639;-42
2022/09/09 00:09:05;;;;;;;;;;;;;;;22.45;50.20;95468.69;10251741;28;2343;-43
2022/09/09 00:14:08;;;;;;;;;;;;;;;22.43;49.75;95462.94;10247183;28;2624;-44
2022/09/09 00:19:11;;;;;;;;;;;;;;;22.44;49.78;95459.19;10266079;28;2848;-44
2022/09/09 00:24:25;;;;;;;;;;;;;;;22.41;49.70;95456.38;10252690;28;2602;-43
2022/09/09 00:29:25;;;;;;;;;;;;;;;22.43;49.68;95454.22;10272475;28;2659;-46
2022/09/09 00:34:26;;;;;;;;;;;;;;;22.41;49.68;95456.38;10248328;28;2827;-42
2022/09/09 00:39:32;;;;;;;;;;;;;;;22.43;49.72;95448.94;10251878;28;2617;-41
2022/09/09 00:44:36;;;;;;;;;;;;;;;22.43;49.79;95462.13;10251970;28;2633;-42
2022/09/09 00:49:55;;;;;;;;;;;;;;;22.43;49.94;95459.50;10252356;28;2298;-44
2022/09/09 00:54:58;;;;;;;;;;;;;;;22.44;49.85;95461.84;10247695;28;2618;-49
2022/09/09 01:00:05;;;;;;;;;;;;;;;22.41;49.37;95456.38;10253231;28;2717;-43
2022/09/09 01:05:07;;;;;;;;;;;;;;;22.39;49.40;95456.66;10244411;28;2547;-45
2022/09/09 01:10:10;;;;;;;;;;;;;;;22.40;49.56;95458.22;10265252;28;2573;-41
2022/09/09 01:15:11;;;;;;;;;;;;;;;22.40;49.87;95463.50;10260649;28;2649;-41
2022/09/09 01:20:29;;;;;;;;;;;;;;;22.40;49.37;95452.94;10265291;28;2633;-46
2022/09/09 01:25:39;;;;;;;;;;;;;;;22.41;49.72;95457.16;10252916;28;2351;-41
2022/09/09 01:30:40;;;;;;;;;;;;;;;22.39;49.58;95456.66;10264540;28;2706;-42
2022/09/09 01:35:50;;;;;;;;;;;;;;;22.40;49.42;95455.56;10265131;28;2703;-45
2022/09/09 01:40:55;;;;;;;;;;;;;;;22.39;49.12;95459.31;10238791;28;2568;-45
2022/09/09 01:45:55;;;;;;;;;;;;;;;22.40;49.37;95457.44;10249350;28;2344;-42
2022/09/09 01:50:57;;;;;;;;;;;;;;;22.40;49.25;95463.50;10245806;28;2638;-45
2022/09/09 01:56:16;;;;;;;;;;;;;;;22.40;49.56;95460.09;10244681;28;2436;-42
2022/09/09 02:01:37;;;;;;;;;;;;;;;22.39;49.19;95464.59;10250393;28;2614;-43
2022/09/09 02:06:38;;;;;;;;;;;;;;;22.38;49.20;95457.72;10248452;28;2705;-42
2022/09/09 02:11:38;;;;;;;;;;;;;;;22.36;49.14;95453.84;10245247;28;2665;-42
2022/09/09 02:16:49;;;;;;;;;;;;;;;22.38;49.28;95454.31;10261366;28;2575;-44
2022/09/09 02:21:50;;;;;;;;;;;;;;;22.38;49.06;95447.16;10258410;28;2733;-42
2022/09/09 02:26:52;;;;;;;;;;;;;;;22.38;49.27;95447.16;10262118;28;2738;-42
2022/09/09 02:31:54;;;;;;;;;;;;;;;22.38;49.13;95447.16;10259173;28;2424;-41
2022/09/09 02:36:55;;;;;;;;;;;;;;;22.38;49.15;95441.88;10249311;28;2604;-49
2022/09/09 02:41:56;;;;;;;;;;;;;;;22.39;48.82;95440.03;10247824;28;2655;-43
2022/09/09 02:47:02;;;;;;;;;;;;;;;22.37;49.09;95436.91;10263402;28;2563;-42
2022/09/09 02:52:11;;;;;;;;;;;;;;;22.36;48.80;95438.75;10248465;28;2705;-43
2022/09/09 02:57:12;;;;;;;;;;;;;;;22.34;48.62;95440.91;10265438;28;2332;-42
2022/09/09 03:02:18;;;;;;;;;;;;;;;22.35;48.77;95441.69;10260659;28;2571;-42
2022/09/09 03:07:19;;;;;;;;;;;;;;;22.34;48.89;95435.63;10244854;28;2578;-44
2022/09/09 03:12:20;;;;;;;;;;;;;;;22.33;48.79;95431.44;10244380;28;2674;-44
2022/09/09 03:17:20;;;;;;;;;;;;;;;22.34;48.85;95430.34;10247517;28;2610;-45
2022/09/09 03:22:23;;;;;;;;;;;;;;;22.33;48.68;95430.63;10245130;28;2336;-44
2022/09/09 03:27:23;;;;;;;;;;;;;;;22.33;48.68;95431.44;10240365;28;2336;-42
2022/09/09 03:32:25;;;;;;;;;;;;;;;22.33;48.66;95433.28;10250654;28;2347;-43
2022/09/09 03:37:25;;;;;;;;;;;;;;;22.35;48.58;95433.75;10245066;28;2723;-42
2022/09/09 03:42:27;;;;;;;;;;;;;;;22.33;48.50;95434.06;10243807;28;2285;-43
2022/09/09 03:47:28;;;;;;;;;;;;;;;22.31;48.52;95435.44;10244338;28;2645;-43
2022/09/09 03:52:29;;;;;;;;;;;;;;;22.29;48.35;95425.16;10247475;28;2645;-43
2022/09/09 03:57:29;;;;;;;;;;;;;;;22.28;48.68;95418.31;10247648;28;2349;-43
2022/09/09 04:02:30;;;;;;;;;;;;;;;22.28;48.45;95415.66;10258966;28;2325;-42
2022/09/09 04:07:30;;;;;;;;;;;;;;;22.26;48.58;95417.03;10243208;28;2683;-49
2022/09/09 04:12:30;;;;;;;;;;;;;;;22.27;48.55;95429.94;10241722;28;2578;-44
2022/09/09 04:17:33;;;;;;;;;;;;;;;22.28;48.26;95425.44;10242652;28;2597;-44
2022/09/09 04:22:33;;;;;;;;;;;;;;;22.27;48.55;95411.47;10245890;28;2576;-41
2022/09/09 04:27:34;;;;;;;;;;;;;;;22.27;48.54;95411.47;10245524;28;2665;-44
2022/09/09 04:32:35;;;;;;;;;;;;;;;22.26;48.12;95401.97;10242872;28;2269;-41
2022/09/09 04:37:35;;;;;;;;;;;;;;;22.26;48.29;95393.25;10243270;28;2567;-43
2022/09/09 04:42:36;;;;;;;;;;;;;;;22.24;48.34;95392.75;10247409;28;2639;-43
2022/09/09 04:47:36;;;;;;;;;;;;;;;22.23;48.48;95402.56;10246959;28;2590;-42
2022/09/09 04:52:37;;;;;;;;;;;;;;;22.22;48.50;95401.00;10247617;28;2360;-44
2022/09/09 04:57:37;;;;;;;;;;;;;;;22.22;48.32;95397.56;10252485;28;2361;-43
2022/09/09 05:02:38;;;;;;;;;;;;;;;22.23;48.42;95385.94;10245075;28;2638;-43
2022/09/09 05:07:38;;;;;;;;;;;;;;;22.22;48.31;95395.72;10249186;28;2585;-43
2022/09/09 05:12:43;;;;;;;;;;;;;;;22.25;48.49;95399.63;10248965;28;2552;-42
2022/09/09 05:17:43;;;;;;;;;;;;;;;22.25;48.70;95410.97;10259890;28;2739;-44
2022/09/09 05:22:43;;;;;;;;;;;;;;;22.27;48.43;95419.38;10267943;28;2317;-45
2022/09/09 05:27:44;;;;;;;;;;;;;;;22.23;48.30;95412.34;10249893;28;2635;-42
2022/09/09 05:32:44;;;;;;;;;;;;;;;22.20;48.14;95418.97;10247516;28;2623;-42
2022/09/09 05:37:45;;;;;;;;;;;;;;;22.23;48.06;95415.78;10246855;28;2351;-44
2022/09/09 05:42:46;;;;;;;;;;;;;;;22.18;47.85;95420.34;10249393;28;2549;-42
2022/09/09 05:47:52;;;;;;;;;;;;;;;22.14;47.97;95420.16;10250019;28;2578;-42
2022/09/09 05:52:54;;;;;;;;;;;;;;;22.19;48.16;95433.28;10245961;28;2594;-42
2022/09/09 05:57:54;;;;;;;;;;;;;;;22.19;48.21;95422.72;10253062;28;2569;-40
2022/09/09 06:02:54;;;;;;;;;;;;;;;22.20;48.06;95418.19;10256956;28;2322;-42
2022/09/09 06:07:55;;;;;;;;;;;;;;;22.24;48.00;95430.53;10251562;28;2607;-43
2022/09/09 06:12:55;;;;;;;;;;;;;;;22.33;47.99;95436.72;10249954;28;2787;-48
2022/09/09 06:17:56;;;;;;;;;;;;;;;22.43;48.11;95428.59;10265738;28;2282;-42
2022/09/09 06:22:56;;;;;;;;;;;;;;;22.53;48.03;95427.59;10253569;28;2658;-45
2022/09/09 06:27:56;;;;;;;;;;;;;;;22.62;47.69;95437.25;10252870;28;2732;-44
2022/09/09 06:32:58;;;;;;;;;;;;;;;22.67;47.95;95433.69;10241742;28;2755;-43
2022/09/09 06:37:58;;;;;;;;;;;;;;;22.72;47.89;95432.81;10247049;28;2634;-42
2022/09/09 06:43:02;;;;;;;;;;;;;;;22.74;47.95;95433.31;10248846;28;2651;-41
2022/09/09 06:48:02;;;;;;;;;;;;;;;22.75;47.91;95434.91;10247347;28;2626;-44
2022/09/09 06:53:02;;;;;;;;;;;;;;;22.76;47.71;95439.88;10247756;28;2624;-41
2022/09/09 06:58:07;;;;;;;;;;;;;;;22.79;47.71;95441.16;10245886;28;2559;-43
2022/09/09 07:03:09;;;;;;;;;;;;;;;22.79;47.69;95449.88;10246788;28;2563;-45
2022/09/09 07:08:10;;;;;;;;;;;;;;;22.80;47.54;95448.00;10245006;28;2759;-40
2022/09/09 07:13:10;;;;;;;;;;;;;;;22.80;47.67;95455.91;10241540;28;2366;-43
2022/09/09 07:18:10;;;;;;;;;;;;;;;22.81;47.68;95476.78;10244031;28;2639;-41
2022/09/09 07:23:11;;;;;;;;;;;;;;;22.82;47.93;95506.63;10246036;28;2641;-43
2022/09/09 07:28:14;;;;;;;;;;;;;;;22.82;47.81;95490.75;10245760;28;2765;-41
2022/09/09 07:33:14;;;;;;;;;;;;;;;22.82;47.88;95496.84;10243152;28;2568;-44
2022/09/09 07:38:14;;;;;;;;;;;;;;;22.83;47.86;95501.06;10245581;28;2617;-42
2022/09/09 07:43:17;;;;;;;;;;;;;;;22.85;47.97;95506.84;10241932;28;2632;-44
2022/09/09 07:48:17;;;;;;;;;;;;;;;22.86;47.66;95520.81;10249847;28;2647;-44
2022/09/09 07:53:19;;;;;;;;;;;;;;;22.87;47.98;95514.47;10247460;28;2762;-42
2022/09/09 07:58:19;;;;;;;;;;;;;;;22.86;48.07;95521.59;10248115;28;2616;-41
2022/09/09 08:03:21;;;;;;;;;;;;;;;22.89;47.75;95517.59;10244266;28;2606;-42
2022/09/09 08:08:22;;;;;;;;;;;;;;;22.88;47.75;95513.38;10248175;28;3030;-45
2022/09/09 08:13:23;;;;;;;;;;;;;;;22.87;47.73;95517.09;10248609;28;2598;-43
2022/09/09 08:18:23;;;;;;;;;;;;;;;22.89;47.85;95536.09;10250793;28;2616;-42
2022/09/09 08:23:25;;;;;;;;;;;;;;;22.91;47.81;95545.31;10249834;28;2826;-42
2022/09/09 08:28:26;;;;;;;;;;;;;;;22.91;47.66;95547.94;10249537;28;2825;-42
2022/09/09 08:33:26;;;;;;;;;;;;;;;22.91;47.97;95547.94;10249929;28;2670;-42
2022/09/09 08:38:26;;;;;;;;;;;;;;;22.92;48.09;95556.63;10252519;28;2611;-41
2022/09/09 08:43:28;;;;;;;;;;;;;;;22.93;47.82;95560.88;10251934;28;2634;-41
2022/09/09 08:48:52;;;;;;;;;;;;;;;22.93;47.71;95556.38;10255403;28;2293;-48
2022/09/09 08:53:53;;;;;;;;;;;;;;;22.94;47.78;95557.13;10227237;28;2606;-48
2022/09/09 08:58:53;;;;;;;;;;;;;;;22.94;47.77;95555.28;10251912;28;2382;-49
2022/09/09 09:03:57;;;;;;;;;;;;;;;22.96;47.81;95553.13;10262518;28;2399;-48
2022/09/09 09:09:08;;;;;;;;;;;;;;;22.95;47.84;95556.06;10251538;28;2328;-48
2022/09/09 09:14:13;;;;;;;;;;;;;;;22.97;47.71;95543.34;10267225;28;2622;-49
2022/09/09 09:19:14;;;;;;;;;;;;;;;22.97;47.71;95530.13;10265108;28;2671;-48
2022/09/09 09:24:21;;;;;;;;;;;;;;;22.98;47.81;95540.41;10252909;28;2717;-48
2022/09/09 09:29:23;;;;;;;;;;;;;;;23.01;48.01;95539.81;10248902;28;2655;-48
2022/09/09 09:34:24;;;;;;;;;;;;;;;23.03;47.96;95547.44;10260700;28;2355;-48
2022/09/09 09:39:25;;;;;;;;;;;;;;;23.04;47.80;95546.41;10247557;28;2633;-49
2022/09/09 09:44:27;;;;;;;;;;;;;;;23.06;47.83;95552.94;10246722;28;2612;-48
2022/09/09 09:49:27;;;;;;;;;;;;;;;23.05;47.70;95554.03;10251885;28;2614;-49
2022/09/09 09:54:28;;;;;;;;;;;;;;;23.07;47.62;95559.78;10247921;28;2381;-45
2022/09/09 09:59:29;;;;;;;;;;;;;;;23.08;47.65;95565.88;10244326;28;2668;-44
2022/09/09 10:04:29;;;;;;;;;;;;;;;23.10;47.73;95561.06;10247742;28;2592;-42
2022/09/09 10:09:32;;;;;;;;;;;;;;;23.08;47.86;95550.00;10262018;28;2333;-42
2022/09/09 10:14:51;;;;;;;;;;;;;;;23.08;47.66;95553.41;10249624;28;2722;-43
2022/09/09 10:20:10;;;;;;;;;;;;;;;23.09;47.82;95546.28;10248531;28;2657;-43
2022/09/09 10:25:17;;;;;;;;;;;;;;;23.08;48.08;95556.06;10250978;28;2618;-43
2022/09/09 10:30:18;;;;;;;;;;;;;;;23.10;47.71;95561.06;10231058;28;2588;-42
2022/09/09 10:35:34;;;;;;;;;;;;;;;23.10;47.61;95561.06;10244948;28;2349;-44
2022/09/09 10:40:38;;;;;;;;;;;;;;;23.09;47.71;95552.34;10244750;28;2349;-42
2022/09/09 10:45:41;;;;;;;;;;;;;;;23.10;47.58;95553.16;10248710;28;2453;-45
2022/09/09 10:50:52;;;;;;;;;;;;;;;23.13;47.71;95558.63;10263954;28;2633;-43
2022/09/09 10:56:00;;;;;;;;;;;;;;;23.13;47.50;95557.84;10248672;28;2610;-45
2022/09/09 11:01:02;;;;;;;;;;;;;;;23.13;47.56;95553.34;10247626;28;2246;-44
2022/09/09 11:06:06;;;;;;;;;;;;;;;23.15;47.41;95550.38;10259363;28;2304;-43
2022/09/09 11:11:17;;;;;;;;;;;;;;;23.16;47.48;95551.97;10258708;28;2280;-43
2022/09/09 11:16:32;;;;;;;;;;;;;;;23.17;47.46;95549.03;10260856;28;2630;-44
2022/09/09 11:21:37;;;;;;;;;;;;;;;23.19;47.67;95543.44;10262025;28;2600;-42
2022/09/09 11:26:38;;;;;;;;;;;;;;;23.20;47.79;95547.66;10247205;28;2328;-42
2022/09/09 11:31:42;;;;;;;;;;;;;;;23.21;47.61;95549.22;10249543;28;2643;-41
2022/09/09 11:36:42;;;;;;;;;;;;;;;23.22;47.65;95551.59;10245528;28;2388;-43
2022/09/09 11:41:46;;;;;;;;;;;;;;;23.25;47.73;95542.25;10247523;28;2590;-42
2022/09/09 11:46:52;;;;;;;;;;;;;;;23.26;47.72;95535.91;10245558;28;2590;-44
2022/09/09 11:51:53;;;;;;;;;;;;;;;23.26;47.67;95541.19;10245287;28;2666;-42
2022/09/09 11:56:53;;;;;;;;;;;;;;;23.26;47.83;95541.19;10245190;28;2285;-43
2022/09/09 12:02:03;;;;;;;;;;;;;;;23.26;47.90;95541.19;10247074;28;2300;-42
2022/09/09 12:07:05;;;;;;;;;;;;;;;23.25;47.81;95545.69;10261695;28;2634;-43
2022/09/09 12:12:26;;;;;;;;;;;;;;;23.26;47.93;95546.47;10245656;28;2598;-41
2022/09/09 12:17:27;;;;;;;;;;;;;;;23.24;47.73;95533.56;10246907;28;2560;-41
2022/09/09 12:22:32;;;;;;;;;;;;;;;23.25;47.97;95535.09;10244720;28;2285;-42
2022/09/09 12:27:45;;;;;;;;;;;;;;;23.25;47.98;95536.97;10258817;28;2615;-44
2022/09/09 12:32:45;;;;;;;;;;;;;;;23.26;47.82;95530.59;10255976;28;2594;-42
2022/09/09 12:37:48;;;;;;;;;;;;;;;23.25;47.76;95524.53;10243868;28;2629;-42
2022/09/09 12:42:50;;;;;;;;;;;;;;;23.26;47.90;95525.31;10241443;28;2551;-43
2022/09/09 12:47:50;;;;;;;;;;;;;;;23.27;47.92;95521.59;10242719;28;2714;-43
2022/09/09 12:52:50;;;;;;;;;;;;;;;23.27;47.74;95511.00;10243477;28;2352;-42
2022/09/09 12:57:51;;;;;;;;;;;;;;;23.28;47.78;95507.28;10242290;28;2581;-44
2022/09/09 13:02:56;;;;;;;;;;;;;;;23.27;47.76;95501.22;10245394;28;2656;-42
2022/09/09 13:08:06;;;;;;;;;;;;;;;23.28;47.77;95496.72;10252341;28;2556;-43
2022/09/09 13:13:16;;;;;;;;;;;;;;;23.27;47.84;95495.94;10251076;28;2648;-42
2022/09/09 13:18:17;;;;;;;;;;;;;;;23.27;48.02;95492.50;10251057;28;2624;-46
2022/09/09 13:23:19;;;;;;;;;;;;;;;23.26;47.68;95486.44;10270456;28;2583;-45
2022/09/09 13:28:20;;;;;;;;;;;;;;;23.27;47.91;95480.06;10251968;28;2638;-42
2022/09/09 13:33:24;;;;;;;;;;;;;;;23.27;48.05;95472.13;10250594;28;2630;-42
2022/09/09 13:38:25;;;;;;;;;;;;;;;23.28;47.60;95475.56;10262726;28;2578;-44
2022/09/09 13:43:25;;;;;;;;;;;;;;;23.29;47.72;95461.25;10252548;28;2573;-43
2022/09/09 13:48:25;;;;;;;;;;;;;;;23.28;48.09;95464.97;10249529;28;2583;-44
2022/09/09 13:53:26;;;;;;;;;;;;;;;23.27;47.63;95458.09;10252727;28;2670;-42
2022/09/09 13:58:26;;;;;;;;;;;;;;;23.27;47.87;95453.63;10249682;28;2285;-44
2022/09/09 14:03:26;;;;;;;;;;;;;;;23.27;47.88;95447.53;10246684;28;2305;-44
2022/09/09 14:08:28;;;;;;;;;;;;;;;23.26;47.89;95457.34;10247624;28;2532;-42
2022/09/09 14:13:28;;;;;;;;;;;;;;;23.26;47.77;95452.06;10262631;28;2607;-41
2022/09/09 14:18:29;;;;;;;;;;;;;;;23.26;47.72;95461.84;10249062;28;2710;-41
2022/09/09 14:23:29;;;;;;;;;;;;;;;23.27;47.79;95468.69;10244740;28;2326;-41
2022/09/09 14:28:30;;;;;;;;;;;;;;;23.27;47.67;95474.78;10248918;28;2602;-42
2022/09/09 14:33:30;;;;;;;;;;;;;;;23.27;47.79;95473.97;10250937;28;2373;-44
2022/09/09 14:38:34;;;;;;;;;;;;;;;23.27;47.63;95476.63;10246869;28;2645;-44
2022/09/09 14:43:34;;;;;;;;;;;;;;;23.27;47.69;95479.25;10245713;28;2364;-42
2022/09/09 14:48:35;;;;;;;;;;;;;;;23.27;47.82;95479.25;10249254;28;2634;-46
2022/09/09 14:53:35;;;;;;;;;;;;;;;23.27;47.60;95489.84;10244363;28;2628;-42
2022/09/09 14:58:36;;;;;;;;;;;;;;;23.27;47.61;95487.19;10248267;28;2717;-43
2022/09/09 15:03:37;;;;;;;;;;;;;;;23.27;47.67;95485.34;10262041;28;2764;-43
2022/09/09 15:08:37;;;;;;;;;;;;;;;23.27;47.69;95479.25;10259146;28;2396;-43
2022/09/09 15:13:39;;;;;;;;;;;;;;;23.27;47.53;95479.25;10241785;28;2600;-42
2022/09/09 15:18:45;;;;;;;;;;;;;;;23.26;47.76;95478.50;10246994;28;2289;-43
2022/09/09 15:23:45;;;;;;;;;;;;;;;23.26;47.42;95475.06;10245358;28;2677;-42
2022/09/09 15:28:47;;;;;;;;;;;;;;;23.26;47.68;95475.88;10244411;28;2663;-42
2022/09/09 15:33:51;;;;;;;;;;;;;;;23.25;47.54;95466.34;10243347;28;2661;-43
2022/09/09 15:38:51;;;;;;;;;;;;;;;23.26;47.79;95461.84;10242936;28;2609;-43
2022/09/09 15:43:52;;;;;;;;;;;;;;;23.25;47.47;95457.63;10245446;28;2623;-43
2022/09/09 15:48:57;;;;;;;;;;;;;;;23.26;47.57;95453.91;10248600;28;2580;-42
2022/09/09 15:53:57;;;;;;;;;;;;;;;23.26;47.48;95438.06;10244292;28;2367;-44
2022/09/09 15:59:02;;;;;;;;;;;;;;;23.27;47.53;95444.88;10244434;28;2580;-42
2022/09/09 16:04:02;;;;;;;;;;;;;;;23.26;47.67;95441.47;10245857;28;2620;-44
2022/09/09 16:09:07;;;;;;;;;;;;;;;23.27;47.72;95447.53;10242292;28;2274;-42
2022/09/09 16:14:08;;;;;;;;;;;;;;;23.27;47.95;95442.25;10248693;28;2654;-44
2022/09/09 16:19:09;;;;;;;;;;;;;;;23.25;47.81;95431.97;10244966;28;2653;-49
2022/09/09 16:24:11;;;;;;;;;;;;;;;23.27;47.66;95437.75;10243547;28;2389;-49
2022/09/09 16:29:11;;;;;;;;;;;;;;;23.26;47.82;95430.13;10248275;28;2588;-44
2022/09/09 16:34:12;;;;;;;;;;;;;;;23.26;47.72;95432.75;10242706;28;2669;-43
2022/09/09 16:39:18;;;;;;;;;;;;;;;23.26;47.83;95422.19;10252825;28;2898;-42
2022/09/09 16:44:19;;;;;;;;;;;;;;;23.25;47.63;95421.41;10252023;28;2917;-42
2022/09/09 16:49:19;;;;;;;;;;;;;;;23.26;47.64;95419.53;10252275;28;2918;-42
2022/09/09 16:54:19;;;;;;;;;;;;;;;23.26;47.53;95422.19;10252850;28;2922;-43
2022/09/09 16:59:20;;;;;;;;;;;;;;;23.25;47.57;95423.25;10256837;28;2841;-41
2022/09/09 17:04:23;;;;;;;;;;;;;;;23.24;47.38;95433.06;10251862;28;2904;-42
2022/09/09 17:09:24;;;;;;;;;;;;;;;23.24;47.48;95433.06;10258012;28;2917;-42
2022/09/09 17:14:24;;;;;;;;;;;;;;;23.25;47.47;95431.19;10268164;28;2421;-41
2022/09/09 17:19:25;;;;;;;;;;;;;;;23.25;47.57;95431.19;10265418;28;2906;-43
2022/09/09 17:24:26;;;;;;;;;;;;;;;23.24;47.57;95437.56;10248690;28;2894;-42
2022/09/09 17:29:26;;;;;;;;;;;;;;;23.23;47.51;95436.78;10248881;28;2314;-43
2022/09/09 17:34:27;;;;;;;;;;;;;;;23.23;47.64;95443.91;10248470;28;2278;-43
2022/09/09 17:39:27;;;;;;;;;;;;;;;23.22;47.86;95437.09;10254490;28;2957;-44
2022/09/09 17:44:28;;;;;;;;;;;;;;;23.22;47.55;95440.50;10243100;28;2965;-42
2022/09/09 17:49:28;;;;;;;;;;;;;;;23.21;47.57;95454.81;10266587;28;2294;-41
2022/09/09 17:54:29;;;;;;;;;;;;;;;23.22;47.60;95455.59;10251316;28;2330;-42
2022/09/09 17:59:30;;;;;;;;;;;;;;;23.22;47.51;95452.94;10252125;28;2895;-45
2022/09/09 18:04:30;;;;;;;;;;;;;;;23.22;47.42;95460.88;10247591;28;2886;-41
2022/09/09 18:09:31;;;;;;;;;;;;;;;23.21;47.46;95470.66;10247661;28;2960;-41
2022/09/09 18:14:31;;;;;;;;;;;;;;;23.21;47.68;95459.31;10249445;28;2886;-42
2022/09/09 18:19:32;;;;;;;;;;;;;;;23.21;47.56;95459.31;10265095;28;2950;-42
2022/09/09 18:24:32;;;;;;;;;;;;;;;23.21;47.57;95465.38;10249092;28;3065;-44
2022/09/09 18:29:33;;;;;;;;;;;;;;;23.20;47.52;95468.31;10251379;28;2865;-41
2022/09/09 18:34:33;;;;;;;;;;;;;;;23.20;47.48;95473.63;10249460;28;2416;-42
2022/09/09 18:39:33;;;;;;;;;;;;;;;23.20;47.41;95492.13;10247016;28;2894;-42
2022/09/09 18:44:34;;;;;;;;;;;;;;;23.19;47.52;95509.06;10245030;28;3088;-42
2022/09/09 18:49:35;;;;;;;;;;;;;;;23.19;47.41;95514.34;10249416;28;2918;-42
2022/09/09 18:54:35;;;;;;;;;;;;;;;23.19;47.46;95509.06;10249579;28;2880;-44
2022/09/09 18:59:35;;;;;;;;;;;;;;;23.19;47.53;95506.41;10248865;28;2904;-42
2022/09/09 19:04:36;;;;;;;;;;;;;;;23.18;47.48;95516.22;10242653;28;2843;-43
2022/09/09 19:09:36;;;;;;;;;;;;;;;23.18;47.61;95518.88;10243748;28;2337;-42
2022/09/09 19:14:36;;;;;;;;;;;;;;;23.18;47.62;95534.75;10247331;28;2901;-43
2022/09/09 19:19:37;;;;;;;;;;;;;;;23.19;47.50;95589.19;10249398;28;2904;-45
2022/09/09 19:24:39;;;;;;;;;;;;;;;23.17;47.77;95591.34;10246850;28;2898;-42
2022/09/09 19:29:41;;;;;;;;;;;;;;;23.17;47.50;95595.81;10246156;28;2859;-42
2022/09/09 19:34:42;;;;;;;;;;;;;;;23.17;47.70;95590.53;10254729;28;3066;-42
2022/09/09 19:39:43;;;;;;;;;;;;;;;23.16;47.63;95600.31;10251775;28;2998;-49
2022/09/09 19:44:45;;;;;;;;;;;;;;;23.16;47.56;95595.03;10245309;28;3034;-41
2022/09/09 19:49:46;;;;;;;;;;;;;;;23.16;47.56;95610.13;10246793;28;2935;-42
2022/09/09 19:54:46;;;;;;;;;;;;;;;23.15;47.67;95601.41;10246632;28;2866;-42
2022/09/09 19:59:47;;;;;;;;;;;;;;;23.16;47.67;95602.97;10249994;28;2802;-42
2022/09/09 20:04:47;;;;;;;;;;;;;;;23.16;47.50;95610.13;10244438;28;2942;-42
2022/09/09 20:09:48;;;;;;;;;;;;;;;23.16;47.49;95615.44;10246815;28;2908;-45
2022/09/09 20:14:48;;;;;;;;;;;;;;;23.14;47.51;95618.34;10252096;28;2898;-44
2022/09/09 20:19:48;;;;;;;;;;;;;;;23.14;47.43;95612.28;10255200;28;2938;-44
2022/09/09 20:24:49;;;;;;;;;;;;;;;23.14;47.72;95617.59;10255305;28;2969;-42
2022/09/09 20:29:49;;;;;;;;;;;;;;;23.13;47.59;95613.34;10253482;28;2857;-42
2022/09/09 20:34:50;;;;;;;;;;;;;;;23.13;47.51;95602.78;10259144;28;2882;-49
2022/09/09 20:39:51;;;;;;;;;;;;;;;23.12;47.43;95593.28;10259758;28;2342;-48
2022/09/09 20:44:51;;;;;;;;;;;;;;;23.13;47.57;95605.44;10254345;28;2342;-43
2022/09/09 20:49:55;;;;;;;;;;;;;;;23.12;47.39;95606.53;10253183;28;2976;-43
2022/09/09 20:54:55;;;;;;;;;;;;;;;23.13;47.36;95594.84;10251510;28;2890;-42
2022/09/09 20:59:55;;;;;;;;;;;;;;;23.12;47.51;95603.88;10254877;28;2977;-46
2022/09/09 21:04:55;;;;;;;;;;;;;;;23.10;47.40;95611.31;10248193;28;3202;-42
2022/09/09 21:09:56;;;;;;;;;;;;;;;23.09;47.68;95610.53;10254189;28;2293;-42
2022/09/09 21:14:56;;;;;;;;;;;;;;;23.11;47.49;95621.59;10249419;28;2888;-42
2022/09/09 21:19:56;;;;;;;;;;;;;;;23.13;47.38;95629.22;10251450;28;2354;-43
2022/09/09 21:24:57;;;;;;;;;;;;;;;23.10;47.41;95638.50;10245372;28;2906;-43
2022/09/09 21:29:57;;;;;;;;;;;;;;;23.11;47.41;95650.66;10252943;28;2888;-45
2022/09/09 21:34:58;;;;;;;;;;;;;;;23.11;47.41;95660.47;10251525;28;2849;-44
2022/09/09 21:39:58;;;;;;;;;;;;;;;23.10;47.28;95661.56;10253512;28;2361;-41
2022/09/09 21:44:59;;;;;;;;;;;;;;;23.12;47.50;95662.03;10250759;28;3096;-43
2022/09/09 21:50:00;;;;;;;;;;;;;;;23.10;47.60;95658.91;10252172;28;2850;-43
2022/09/09 21:55:00;;;;;;;;;;;;;;;23.07;47.45;95654.97;10250276;28;2912;-44
2022/09/09 22:00:01;;;;;;;;;;;;;;;23.06;47.33;95653.41;10255202;28;3013;-44
2022/09/09 22:05:01;;;;;;;;;;;;;;;23.06;47.25;95657.91;10246921;28;2910;-42
2022/09/09 22:10:01;;;;;;;;;;;;;;;23.05;47.39;95657.13;10248359;28;2309;-43
2022/09/09 22:15:02;;;;;;;;;;;;;;;23.03;47.41;95659.28;10250168;28;2862;-43
2022/09/09 22:20:02;;;;;;;;;;;;;;;23.02;47.20;95651.66;10264951;28;2932;-42
2022/09/09 22:25:03;;;;;;;;;;;;;;;23.01;47.22;95655.34;10244474;28;2888;-49
2022/09/09 22:30:03;;;;;;;;;;;;;;;23.00;47.14;95648.50;10253598;28;2274;-48
2022/09/09 22:35:04;;;;;;;;;;;;;;;23.00;47.51;95648.50;10263400;28;3034;-41
2022/09/09 22:40:05;;;;;;;;;;;;;;;23.00;47.21;95651.91;10262151;28;2907;-48
2022/09/09 22:45:06;;;;;;;;;;;;;;;22.99;47.22;95657.50;10243169;28;2828;-48
2022/09/09 22:50:07;;;;;;;;;;;;;;;22.98;47.37;95661.22;10260690;28;2425;-48
2022/09/09 22:55:08;;;;;;;;;;;;;;;22.99;47.54;95657.50;10261181;28;2442;-48
2022/09/09 23:00:09;;;;;;;;;;;;;;;22.97;47.55;95659.66;10246350;28;2425;-48
2022/09/09 23:05:16;;;;;;;;;;;;;;;22.98;47.19;95667.28;10243072;28;2875;-48
2022/09/09 23:10:17;;;;;;;;;;;;;;;22.98;47.10;95654.06;10248129;28;2903;-48
2022/09/09 23:15:18;;;;;;;;;;;;;;;22.98;47.19;95651.41;10260537;28;2342;-48
2022/09/09 23:20:25;;;;;;;;;;;;;;;22.98;47.50;95648.03;10251536;28;2402;-48
2022/09/09 23:25:27;;;;;;;;;;;;;;;22.96;47.26;95642.22;10244491;28;2963;-48
2022/09/09 23:30:28;;;;;;;;;;;;;;;22.95;47.37;95645.94;10231932;28;2914;-48
2022/09/09 23:35:29;;;;;;;;;;;;;;;22.95;47.38;95638.00;10233754;28;2902;-48
2022/09/09 23:40:30;;;;;;;;;;;;;;;22.93;47.34;95648.09;10249217;28;2933;-48
2022/09/09 23:45:31;;;;;;;;;;;;;;;22.92;47.26;95643.88;10254627;28;2970;-48
2022/09/09 23:50:32;;;;;;;;;;;;;;;22.91;47.28;95640.47;10247199;28;2910;-48
2022/09/09 23:55:33;;;;;;;;;;;;;;;22.92;47.26;95635.94;10242874;28;2917;-48
